sensor_id;sensor_type;location;lat;lon;timestamp;temperature;humidity
12164;DHT22;6145;50.192;10.064;2022-10-31T00:00:44;13.00;94.50
12164;DHT22;6145;50.192;10.064;2022-10-31T00:03:11;13.00;94.50
12164;DHT22;6145;50.192;10.064;2022-10-31T00:05:41;13.00;94.50
12164;DHT22;6145;50.192;10.064;2022-10-31T00:08:08;13.60;95.10
12164;DHT22;6145;50.192;10.064;2022-10-31T00:10:37;13.00;94.50
12164;DHT22;6145;50.192;10.064;2022-10-31T00:13:04;13.00;94.50
12164;DHT22;6145;50.192;10.064;2022-10-31T00:15:32;13.00;94.50
12164;DHT22;6145;50.192;10.064;2022-10-31T00:18:00;12.90;94.50
12164;DHT22;6145;50.192;10.064;2022-10-31T00:20:27;13.00;94.50
12164;DHT22;6145;50.192;10.064;2022-10-31T00:22:57;12.90;94.50
12164;DHT22;6145;50.192;10.064;2022-10-31T00:25:24;12.90;94.50
12164;DHT22;6145;50.192;10.064;2022-10-31T00:27:51;12.90;94.40
12164;DHT22;6145;50.192;10.064;2022-10-31T00:30:18;12.90;94.30
12164;DHT22;6145;50.192;10.064;2022-10-31T00:32:45;13.20;94.50
12164;DHT22;6145;50.192;10.064;2022-10-31T00:35:13;13.40;94.70
12164;DHT22;6145;50.192;10.064;2022-10-31T00:37:40;12.90;94.60
12164;DHT22;6145;50.192;10.064;2022-10-31T00:40:08;12.90;94.60
12164;DHT22;6145;50.192;10.064;2022-10-31T00:42:35;12.80;94.60
12164;DHT22;6145;50.192;10.064;2022-10-31T00:45:02;12.80;94.60
12164;DHT22;6145;50.192;10.064;2022-10-31T00:47:29;12.80;94.60
12164;DHT22;6145;50.192;10.064;2022-10-31T00:49:56;12.80;94.60
12164;DHT22;6145;50.192;10.064;2022-10-31T00:52:24;12.80;94.50
12164;DHT22;6145;50.192;10.064;2022-10-31T00:54:51;12.80;94.70
12164;DHT22;6145;50.192;10.064;2022-10-31T00:57:18;12.80;94.30
12164;DHT22;6145;50.192;10.064;2022-10-31T00:59:44;12.70;94.40
12164;DHT22;6145;50.192;10.064;2022-10-31T01:02:11;12.70;94.50
12164;DHT22;6145;50.192;10.064;2022-10-31T01:04:38;12.70;94.60
12164;DHT22;6145;50.192;10.064;2022-10-31T01:07:05;12.70;94.80
12164;DHT22;6145;50.192;10.064;2022-10-31T01:09:33;12.70;94.60
12164;DHT22;6145;50.192;10.064;2022-10-31T01:12:00;12.70;94.50
12164;DHT22;6145;50.192;10.064;2022-10-31T01:14:27;13.90;95.10
12164;DHT22;6145;50.192;10.064;2022-10-31T01:16:54;12.70;94.60
12164;DHT22;6145;50.192;10.064;2022-10-31T01:19:20;12.70;94.60
12164;DHT22;6145;50.192;10.064;2022-10-31T01:21:47;12.70;94.60
12164;DHT22;6145;50.192;10.064;2022-10-31T01:24:14;12.70;94.50
12164;DHT22;6145;50.192;10.064;2022-10-31T01:26:42;12.70;94.50
12164;DHT22;6145;50.192;10.064;2022-10-31T01:29:09;13.70;95.00
12164;DHT22;6145;50.192;10.064;2022-10-31T01:31:38;12.70;94.50
12164;DHT22;6145;50.192;10.064;2022-10-31T01:34:05;13.10;95.00
12164;DHT22;6145;50.192;10.064;2022-10-31T01:36:34;12.60;94.50
12164;DHT22;6145;50.192;10.064;2022-10-31T01:39:04;12.60;94.50
12164;DHT22;6145;50.192;10.064;2022-10-31T01:41:33;12.60;94.50
12164;DHT22;6145;50.192;10.064;2022-10-31T01:44:43;12.60;94.50
12164;DHT22;6145;50.192;10.064;2022-10-31T01:46:53;12.60;94.50
12164;DHT22;6145;50.192;10.064;2022-10-31T01:49:24;12.60;94.40
12164;DHT22;6145;50.192;10.064;2022-10-31T01:51:54;12.60;94.40
12164;DHT22;6145;50.192;10.064;2022-10-31T01:54:25;12.60;94.40
12164;DHT22;6145;50.192;10.064;2022-10-31T01:56:55;12.90;94.60
12164;DHT22;6145;50.192;10.064;2022-10-31T01:59:26;12.60;94.40
12164;DHT22;6145;50.192;10.064;2022-10-31T02:01:54;12.50;94.40
12164;DHT22;6145;50.192;10.064;2022-10-31T02:04:22;12.50;94.70
12164;DHT22;6145;50.192;10.064;2022-10-31T02:06:55;12.50;94.30
12164;DHT22;6145;50.192;10.064;2022-10-31T02:09:23;12.50;94.30
12164;DHT22;6145;50.192;10.064;2022-10-31T02:11:51;12.50;94.30
12164;DHT22;6145;50.192;10.064;2022-10-31T02:14:18;12.50;94.40
12164;DHT22;6145;50.192;10.064;2022-10-31T02:16:48;12.50;94.30
12164;DHT22;6145;50.192;10.064;2022-10-31T02:19:20;12.50;94.30
12164;DHT22;6145;50.192;10.064;2022-10-31T02:21:52;12.50;94.30
12164;DHT22;6145;50.192;10.064;2022-10-31T02:24:44;12.50;94.20
12164;DHT22;6145;50.192;10.064;2022-10-31T02:27:19;12.50;94.20
12164;DHT22;6145;50.192;10.064;2022-10-31T02:30:11;12.50;94.20
12164;DHT22;6145;50.192;10.064;2022-10-31T02:32:53;12.40;94.20
12164;DHT22;6145;50.192;10.064;2022-10-31T02:35:33;12.40;94.20
12164;DHT22;6145;50.192;10.064;2022-10-31T02:38:10;12.40;94.20
12164;DHT22;6145;50.192;10.064;2022-10-31T02:40:44;12.40;94.20
12164;DHT22;6145;50.192;10.064;2022-10-31T02:43:20;12.40;94.20
12164;DHT22;6145;50.192;10.064;2022-10-31T02:45:50;12.40;94.20
12164;DHT22;6145;50.192;10.064;2022-10-31T02:48:26;12.40;94.20
12164;DHT22;6145;50.192;10.064;2022-10-31T02:50:56;12.30;94.20
12164;DHT22;6145;50.192;10.064;2022-10-31T02:53:24;12.30;94.20
12164;DHT22;6145;50.192;10.064;2022-10-31T02:55:56;12.30;94.20
12164;DHT22;6145;50.192;10.064;2022-10-31T02:58:26;12.30;94.20
12164;DHT22;6145;50.192;10.064;2022-10-31T03:01:10;12.30;94.20
12164;DHT22;6145;50.192;10.064;2022-10-31T03:03:48;12.30;94.20
12164;DHT22;6145;50.192;10.064;2022-10-31T03:06:22;12.30;94.20
12164;DHT22;6145;50.192;10.064;2022-10-31T03:08:58;13.40;94.70
12164;DHT22;6145;50.192;10.064;2022-10-31T03:11:31;12.30;94.20
12164;DHT22;6145;50.192;10.064;2022-10-31T03:14:03;12.30;94.20
12164;DHT22;6145;50.192;10.064;2022-10-31T03:16:39;12.20;94.20
12164;DHT22;6145;50.192;10.064;2022-10-31T03:19:11;12.20;94.20
12164;DHT22;6145;50.192;10.064;2022-10-31T03:21:43;12.20;94.20
12164;DHT22;6145;50.192;10.064;2022-10-31T03:24:13;12.20;94.30
12164;DHT22;6145;50.192;10.064;2022-10-31T03:26:43;12.20;94.20
12164;DHT22;6145;50.192;10.064;2022-10-31T03:29:15;12.20;94.20
12164;DHT22;6145;50.192;10.064;2022-10-31T03:31:45;12.20;94.30
12164;DHT22;6145;50.192;10.064;2022-10-31T03:34:16;12.20;94.30
12164;DHT22;6145;50.192;10.064;2022-10-31T03:36:45;12.20;94.30
12164;DHT22;6145;50.192;10.064;2022-10-31T03:39:14;12.20;94.30
12164;DHT22;6145;50.192;10.064;2022-10-31T03:41:47;12.20;94.20
12164;DHT22;6145;50.192;10.064;2022-10-31T03:44:19;12.10;94.20
12164;DHT22;6145;50.192;10.064;2022-10-31T03:46:46;12.10;94.20
12164;DHT22;6145;50.192;10.064;2022-10-31T03:49:15;12.10;94.20
12164;DHT22;6145;50.192;10.064;2022-10-31T03:51:45;12.10;94.20
12164;DHT22;6145;50.192;10.064;2022-10-31T03:54:20;12.10;94.20
12164;DHT22;6145;50.192;10.064;2022-10-31T03:56:52;12.10;94.20
12164;DHT22;6145;50.192;10.064;2022-10-31T03:59:23;12.10;94.20
12164;DHT22;6145;50.192;10.064;2022-10-31T04:01:53;12.10;94.20
12164;DHT22;6145;50.192;10.064;2022-10-31T04:04:24;12.10;94.30
12164;DHT22;6145;50.192;10.064;2022-10-31T04:06:52;12.10;94.30
12164;DHT22;6145;50.192;10.064;2022-10-31T04:09:21;12.10;94.30
12164;DHT22;6145;50.192;10.064;2022-10-31T04:11:50;12.00;94.20
12164;DHT22;6145;50.192;10.064;2022-10-31T04:14:18;12.00;94.20
12164;DHT22;6145;50.192;10.064;2022-10-31T04:16:45;12.00;94.10
12164;DHT22;6145;50.192;10.064;2022-10-31T04:19:13;12.00;94.40
12164;DHT22;6145;50.192;10.064;2022-10-31T04:21:42;12.00;94.10
12164;DHT22;6145;50.192;10.064;2022-10-31T04:24:09;12.00;94.10
12164;DHT22;6145;50.192;10.064;2022-10-31T04:26:36;12.00;94.00
12164;DHT22;6145;50.192;10.064;2022-10-31T04:29:03;11.90;93.80
12164;DHT22;6145;50.192;10.064;2022-10-31T04:31:30;11.90;94.10
12164;DHT22;6145;50.192;10.064;2022-10-31T04:33:56;11.90;94.00
12164;DHT22;6145;50.192;10.064;2022-10-31T04:36:23;11.80;94.00
12164;DHT22;6145;50.192;10.064;2022-10-31T04:38:51;11.80;93.90
12164;DHT22;6145;50.192;10.064;2022-10-31T04:41:18;11.80;94.00
12164;DHT22;6145;50.192;10.064;2022-10-31T04:43:45;11.80;94.00
12164;DHT22;6145;50.192;10.064;2022-10-31T04:46:12;12.30;94.30
12164;DHT22;6145;50.192;10.064;2022-10-31T04:48:38;11.80;94.20
12164;DHT22;6145;50.192;10.064;2022-10-31T04:51:05;11.80;94.20
12164;DHT22;6145;50.192;10.064;2022-10-31T04:53:32;11.80;94.20
12164;DHT22;6145;50.192;10.064;2022-10-31T04:56:00;11.80;94.20
12164;DHT22;6145;50.192;10.064;2022-10-31T04:58:28;11.70;94.20
12164;DHT22;6145;50.192;10.064;2022-10-31T05:00:55;11.70;94.20
12164;DHT22;6145;50.192;10.064;2022-10-31T05:03:22;11.80;94.20
12164;DHT22;6145;50.192;10.064;2022-10-31T05:05:49;11.70;94.20
12164;DHT22;6145;50.192;10.064;2022-10-31T05:08:16;12.50;94.50
12164;DHT22;6145;50.192;10.064;2022-10-31T05:10:43;12.40;94.50
12164;DHT22;6145;50.192;10.064;2022-10-31T05:13:11;11.70;94.20
12164;DHT22;6145;50.192;10.064;2022-10-31T05:15:40;11.70;94.20
12164;DHT22;6145;50.192;10.064;2022-10-31T05:18:09;11.70;94.00
12164;DHT22;6145;50.192;10.064;2022-10-31T05:20:36;12.50;94.10
12164;DHT22;6145;50.192;10.064;2022-10-31T05:23:03;11.60;93.90
12164;DHT22;6145;50.192;10.064;2022-10-31T05:25:30;11.60;93.90
12164;DHT22;6145;50.192;10.064;2022-10-31T05:27:57;11.60;94.00
12164;DHT22;6145;50.192;10.064;2022-10-31T05:30:26;12.00;94.20
12164;DHT22;6145;50.192;10.064;2022-10-31T05:32:54;11.70;94.00
12164;DHT22;6145;50.192;10.064;2022-10-31T05:35:22;11.60;93.70
12164;DHT22;6145;50.192;10.064;2022-10-31T05:37:51;11.90;93.90
12164;DHT22;6145;50.192;10.064;2022-10-31T05:40:19;11.50;93.60
12164;DHT22;6145;50.192;10.064;2022-10-31T05:42:46;11.40;93.60
12164;DHT22;6145;50.192;10.064;2022-10-31T05:45:15;11.30;93.40
12164;DHT22;6145;50.192;10.064;2022-10-31T05:47:53;11.60;93.80
12164;DHT22;6145;50.192;10.064;2022-10-31T05:50:21;10.50;93.50
12164;DHT22;6145;50.192;10.064;2022-10-31T05:52:54;11.20;93.80
12164;DHT22;6145;50.192;10.064;2022-10-31T05:55:21;11.10;93.80
12164;DHT22;6145;50.192;10.064;2022-10-31T05:57:48;11.20;93.90
12164;DHT22;6145;50.192;10.064;2022-10-31T06:00:15;11.20;93.80
12164;DHT22;6145;50.192;10.064;2022-10-31T06:02:43;11.00;93.90
12164;DHT22;6145;50.192;10.064;2022-10-31T06:05:10;11.10;94.10
12164;DHT22;6145;50.192;10.064;2022-10-31T06:07:37;11.10;94.20
12164;DHT22;6145;50.192;10.064;2022-10-31T06:10:05;11.10;94.60
12164;DHT22;6145;50.192;10.064;2022-10-31T06:12:34;11.10;94.40
12164;DHT22;6145;50.192;10.064;2022-10-31T06:15:03;11.10;94.20
12164;DHT22;6145;50.192;10.064;2022-10-31T06:17:30;11.10;94.20
12164;DHT22;6145;50.192;10.064;2022-10-31T06:19:58;11.10;94.30
12164;DHT22;6145;50.192;10.064;2022-10-31T06:22:25;11.10;94.40
12164;DHT22;6145;50.192;10.064;2022-10-31T06:24:52;11.10;94.20
12164;DHT22;6145;50.192;10.064;2022-10-31T06:27:19;11.00;94.20
12164;DHT22;6145;50.192;10.064;2022-10-31T06:29:46;11.50;94.60
12164;DHT22;6145;50.192;10.064;2022-10-31T06:32:13;11.00;94.60
12164;DHT22;6145;50.192;10.064;2022-10-31T06:34:40;11.00;94.70
12164;DHT22;6145;50.192;10.064;2022-10-31T06:37:09;11.20;94.80
12164;DHT22;6145;50.192;10.064;2022-10-31T06:39:36;11.10;94.80
12164;DHT22;6145;50.192;10.064;2022-10-31T06:42:04;11.80;95.10
12164;DHT22;6145;50.192;10.064;2022-10-31T06:44:31;11.10;94.80
12164;DHT22;6145;50.192;10.064;2022-10-31T06:46:58;12.00;95.20
12164;DHT22;6145;50.192;10.064;2022-10-31T06:49:25;11.20;94.70
12164;DHT22;6145;50.192;10.064;2022-10-31T06:51:52;12.10;94.80
12164;DHT22;6145;50.192;10.064;2022-10-31T06:54:20;11.10;94.50
12164;DHT22;6145;50.192;10.064;2022-10-31T06:56:47;11.20;94.70
12164;DHT22;6145;50.192;10.064;2022-10-31T06:59:14;11.10;94.80
12164;DHT22;6145;50.192;10.064;2022-10-31T07:01:41;11.10;94.80
12164;DHT22;6145;50.192;10.064;2022-10-31T07:04:08;11.10;94.70
12164;DHT22;6145;50.192;10.064;2022-10-31T07:06:35;11.00;94.70
12164;DHT22;6145;50.192;10.064;2022-10-31T07:09:02;11.00;94.80
12164;DHT22;6145;50.192;10.064;2022-10-31T07:11:30;10.90;94.80
12164;DHT22;6145;50.192;10.064;2022-10-31T07:13:57;12.30;95.70
12164;DHT22;6145;50.192;10.064;2022-10-31T07:16:24;10.90;95.20
12164;DHT22;6145;50.192;10.064;2022-10-31T07:18:51;10.90;95.10
12164;DHT22;6145;50.192;10.064;2022-10-31T07:21:18;10.90;95.10
12164;DHT22;6145;50.192;10.064;2022-10-31T07:23:47;10.80;95.20
12164;DHT22;6145;50.192;10.064;2022-10-31T07:26:14;10.80;95.30
12164;DHT22;6145;50.192;10.064;2022-10-31T07:28:42;11.20;95.70
12164;DHT22;6145;50.192;10.064;2022-10-31T07:31:09;10.90;95.70
12164;DHT22;6145;50.192;10.064;2022-10-31T07:33:36;10.90;95.70
12164;DHT22;6145;50.192;10.064;2022-10-31T07:36:03;10.90;95.70
12164;DHT22;6145;50.192;10.064;2022-10-31T07:38:30;10.90;95.60
12164;DHT22;6145;50.192;10.064;2022-10-31T07:41:00;10.90;95.60
12164;DHT22;6145;50.192;10.064;2022-10-31T07:43:27;11.50;96.10
12164;DHT22;6145;50.192;10.064;2022-10-31T07:45:55;11.00;96.00
12164;DHT22;6145;50.192;10.064;2022-10-31T07:48:22;10.90;96.00
12164;DHT22;6145;50.192;10.064;2022-10-31T07:50:52;10.90;96.10
12164;DHT22;6145;50.192;10.064;2022-10-31T07:53:20;10.90;96.30
12164;DHT22;6145;50.192;10.064;2022-10-31T07:55:47;10.90;96.40
12164;DHT22;6145;50.192;10.064;2022-10-31T07:58:15;10.90;96.40
12164;DHT22;6145;50.192;10.064;2022-10-31T08:00:43;10.90;96.40
12164;DHT22;6145;50.192;10.064;2022-10-31T08:03:13;10.90;96.40
12164;DHT22;6145;50.192;10.064;2022-10-31T08:05:41;10.90;96.40
12164;DHT22;6145;50.192;10.064;2022-10-31T08:08:08;10.90;96.50
12164;DHT22;6145;50.192;10.064;2022-10-31T08:10:35;10.90;96.60
12164;DHT22;6145;50.192;10.064;2022-10-31T08:13:04;10.90;96.60
12164;DHT22;6145;50.192;10.064;2022-10-31T08:15:32;10.90;96.90
12164;DHT22;6145;50.192;10.064;2022-10-31T08:18:02;11.90;97.70
12164;DHT22;6145;50.192;10.064;2022-10-31T08:20:30;10.90;97.50
12164;DHT22;6145;50.192;10.064;2022-10-31T08:22:59;10.90;97.70
12164;DHT22;6145;50.192;10.064;2022-10-31T08:25:27;11.00;98.00
12164;DHT22;6145;50.192;10.064;2022-10-31T08:27:55;11.00;98.10
12164;DHT22;6145;50.192;10.064;2022-10-31T08:30:24;11.10;98.30
12164;DHT22;6145;50.192;10.064;2022-10-31T08:32:58;11.20;98.30
12164;DHT22;6145;50.192;10.064;2022-10-31T08:35:25;11.20;98.40
12164;DHT22;6145;50.192;10.064;2022-10-31T08:37:54;11.40;98.40
12164;DHT22;6145;50.192;10.064;2022-10-31T08:40:21;11.40;98.20
12164;DHT22;6145;50.192;10.064;2022-10-31T08:42:54;11.70;98.20
12164;DHT22;6145;50.192;10.064;2022-10-31T08:45:21;11.50;98.10
12164;DHT22;6145;50.192;10.064;2022-10-31T08:47:48;12.00;98.20
12164;DHT22;6145;50.192;10.064;2022-10-31T08:50:15;11.60;98.00
12164;DHT22;6145;50.192;10.064;2022-10-31T08:52:42;11.70;98.10
12164;DHT22;6145;50.192;10.064;2022-10-31T08:55:10;11.70;98.00
12164;DHT22;6145;50.192;10.064;2022-10-31T08:57:42;11.60;97.90
12164;DHT22;6145;50.192;10.064;2022-10-31T09:00:09;11.60;98.10
12164;DHT22;6145;50.192;10.064;2022-10-31T09:02:36;11.60;98.30
12164;DHT22;6145;50.192;10.064;2022-10-31T09:05:04;11.70;98.50
12164;DHT22;6145;50.192;10.064;2022-10-31T09:07:31;11.80;98.60
12164;DHT22;6145;50.192;10.064;2022-10-31T09:12:37;12.70;99.10
12164;DHT22;6145;50.192;10.064;2022-10-31T09:15:05;12.00;98.70
12164;DHT22;6145;50.192;10.064;2022-10-31T09:17:32;12.10;98.60
12164;DHT22;6145;50.192;10.064;2022-10-31T09:19:59;12.20;98.90
12164;DHT22;6145;50.192;10.064;2022-10-31T09:22:26;12.20;98.50
12164;DHT22;6145;50.192;10.064;2022-10-31T09:24:53;12.30;98.50
12164;DHT22;6145;50.192;10.064;2022-10-31T09:27:19;12.60;98.50
12164;DHT22;6145;50.192;10.064;2022-10-31T09:29:48;12.40;98.40
12164;DHT22;6145;50.192;10.064;2022-10-31T09:32:14;12.50;98.50
12164;DHT22;6145;50.192;10.064;2022-10-31T09:34:41;12.50;98.50
12164;DHT22;6145;50.192;10.064;2022-10-31T09:37:08;12.70;98.60
12164;DHT22;6145;50.192;10.064;2022-10-31T09:39:35;14.10;99.20
12164;DHT22;6145;50.192;10.064;2022-10-31T09:44:55;12.70;98.70
12164;DHT22;6145;50.192;10.064;2022-10-31T09:47:34;12.70;98.70
12164;DHT22;6145;50.192;10.064;2022-10-31T09:50:12;12.80;98.80
12164;DHT22;6145;50.192;10.064;2022-10-31T09:52:43;12.80;99.00
12164;DHT22;6145;50.192;10.064;2022-10-31T09:55:16;12.90;99.10
12164;DHT22;6145;50.192;10.064;2022-10-31T09:57:44;13.00;99.20
12164;DHT22;6145;50.192;10.064;2022-10-31T10:00:18;13.00;99.10
12164;DHT22;6145;50.192;10.064;2022-10-31T10:02:48;13.10;98.90
12164;DHT22;6145;50.192;10.064;2022-10-31T10:05:19;13.10;99.20
12164;DHT22;6145;50.192;10.064;2022-10-31T10:07:54;13.20;99.30
12164;DHT22;6145;50.192;10.064;2022-10-31T10:10:32;13.30;99.30
12164;DHT22;6145;50.192;10.064;2022-10-31T10:13:16;13.40;99.30
12164;DHT22;6145;50.192;10.064;2022-10-31T10:15:58;13.40;99.20
12164;DHT22;6145;50.192;10.064;2022-10-31T10:18:34;13.50;99.30
12164;DHT22;6145;50.192;10.064;2022-10-31T10:21:16;13.60;99.40
12164;DHT22;6145;50.192;10.064;2022-10-31T10:23:55;13.70;99.60
12164;DHT22;6145;50.192;10.064;2022-10-31T10:26:30;13.90;99.10
12164;DHT22;6145;50.192;10.064;2022-10-31T10:29:04;13.80;99.10
12164;DHT22;6145;50.192;10.064;2022-10-31T10:31:40;13.90;99.30
12164;DHT22;6145;50.192;10.064;2022-10-31T10:34:22;14.00;99.40
12164;DHT22;6145;50.192;10.064;2022-10-31T10:36:56;14.10;99.30
12164;DHT22;6145;50.192;10.064;2022-10-31T10:39:27;14.20;99.30
12164;DHT22;6145;50.192;10.064;2022-10-31T10:41:57;14.20;99.30
12164;DHT22;6145;50.192;10.064;2022-10-31T10:44:49;14.20;99.20
12164;DHT22;6145;50.192;10.064;2022-10-31T10:47:40;14.30;99.00
12164;DHT22;6145;50.192;10.064;2022-10-31T10:50:11;14.40;99.00
12164;DHT22;6145;50.192;10.064;2022-10-31T10:52:47;14.50;98.90
12164;DHT22;6145;50.192;10.064;2022-10-31T10:55:23;14.50;98.70
12164;DHT22;6145;50.192;10.064;2022-10-31T10:57:55;14.40;98.70
12164;DHT22;6145;50.192;10.064;2022-10-31T11:00:24;14.70;98.90
12164;DHT22;6145;50.192;10.064;2022-10-31T11:02:54;14.70;98.90
12164;DHT22;6145;50.192;10.064;2022-10-31T11:05:28;14.70;98.90
12164;DHT22;6145;50.192;10.064;2022-10-31T11:07:57;15.00;98.90
12164;DHT22;6145;50.192;10.064;2022-10-31T11:10:24;15.00;98.80
12164;DHT22;6145;50.192;10.064;2022-10-31T11:13:20;15.00;98.80
12164;DHT22;6145;50.192;10.064;2022-10-31T11:15:56;15.10;98.60
12164;DHT22;6145;50.192;10.064;2022-10-31T11:18:26;15.20;98.70
12164;DHT22;6145;50.192;10.064;2022-10-31T11:20:55;15.20;98.70
12164;DHT22;6145;50.192;10.064;2022-10-31T11:23:23;15.40;98.30
12164;DHT22;6145;50.192;10.064;2022-10-31T11:25:54;15.40;98.20
12164;DHT22;6145;50.192;10.064;2022-10-31T11:28:21;15.40;98.00
12164;DHT22;6145;50.192;10.064;2022-10-31T11:30:50;15.50;98.00
12164;DHT22;6145;50.192;10.064;2022-10-31T11:33:19;15.50;98.10
12164;DHT22;6145;50.192;10.064;2022-10-31T11:35:49;15.80;98.00
12164;DHT22;6145;50.192;10.064;2022-10-31T11:38:18;15.70;98.10
12164;DHT22;6145;50.192;10.064;2022-10-31T11:40:54;15.70;98.10
12164;DHT22;6145;50.192;10.064;2022-10-31T11:43:21;15.80;98.20
12164;DHT22;6145;50.192;10.064;2022-10-31T11:45:49;15.90;98.20
12164;DHT22;6145;50.192;10.064;2022-10-31T11:48:17;16.30;98.30
12164;DHT22;6145;50.192;10.064;2022-10-31T11:50:50;16.40;98.30
12164;DHT22;6145;50.192;10.064;2022-10-31T11:53:20;16.20;97.20
12164;DHT22;6145;50.192;10.064;2022-10-31T11:55:48;16.10;96.50
12164;DHT22;6145;50.192;10.064;2022-10-31T11:58:26;16.10;97.20
12164;DHT22;6145;50.192;10.064;2022-10-31T12:00:55;16.10;97.20
12164;DHT22;6145;50.192;10.064;2022-10-31T12:03:48;16.20;97.40
12164;DHT22;6145;50.192;10.064;2022-10-31T12:06:23;16.30;97.50
12164;DHT22;6145;50.192;10.064;2022-10-31T12:08:50;16.60;97.50
12164;DHT22;6145;50.192;10.064;2022-10-31T12:11:31;16.50;97.20
12164;DHT22;6145;50.192;10.064;2022-10-31T12:14:08;16.50;97.60
12164;DHT22;6145;50.192;10.064;2022-10-31T12:16:41;16.50;96.80
12164;DHT22;6145;50.192;10.064;2022-10-31T12:19:14;16.60;96.60
12164;DHT22;6145;50.192;10.064;2022-10-31T12:21:57;16.50;96.30
12164;DHT22;6145;50.192;10.064;2022-10-31T12:27:35;16.60;96.20
12164;DHT22;6145;50.192;10.064;2022-10-31T12:30:17;16.70;96.70
12164;DHT22;6145;50.192;10.064;2022-10-31T12:33:11;16.80;96.80
12164;DHT22;6145;50.192;10.064;2022-10-31T12:35:50;16.80;96.30
12164;DHT22;6145;50.192;10.064;2022-10-31T12:38:30;16.80;96.10
12164;DHT22;6145;50.192;10.064;2022-10-31T12:42:16;16.80;96.10
12164;DHT22;6145;50.192;10.064;2022-10-31T12:44:56;16.90;96.40
12164;DHT22;6145;50.192;10.064;2022-10-31T12:47:40;17.00;96.20
12164;DHT22;6145;50.192;10.064;2022-10-31T12:50:28;17.00;96.50
12164;DHT22;6145;50.192;10.064;2022-10-31T12:53:10;17.10;96.20
12164;DHT22;6145;50.192;10.064;2022-10-31T12:55:52;17.10;96.10
12164;DHT22;6145;50.192;10.064;2022-10-31T12:58:25;17.10;96.10
12164;DHT22;6145;50.192;10.064;2022-10-31T13:01:02;17.20;96.50
12164;DHT22;6145;50.192;10.064;2022-10-31T13:03:33;17.30;96.60
12164;DHT22;6145;50.192;10.064;2022-10-31T13:06:05;17.30;95.90
12164;DHT22;6145;50.192;10.064;2022-10-31T13:08:38;17.30;95.90
12164;DHT22;6145;50.192;10.064;2022-10-31T13:11:10;17.90;96.00
12164;DHT22;6145;50.192;10.064;2022-10-31T13:13:41;17.30;95.40
12164;DHT22;6145;50.192;10.064;2022-10-31T13:16:13;17.40;95.90
12164;DHT22;6145;50.192;10.064;2022-10-31T13:18:44;17.40;95.80
12164;DHT22;6145;50.192;10.064;2022-10-31T13:21:17;17.40;95.50
12164;DHT22;6145;50.192;10.064;2022-10-31T13:23:45;17.40;95.60
12164;DHT22;6145;50.192;10.064;2022-10-31T13:26:21;17.50;95.70
12164;DHT22;6145;50.192;10.064;2022-10-31T13:28:54;17.50;96.10
12164;DHT22;6145;50.192;10.064;2022-10-31T13:31:23;17.50;95.50
12164;DHT22;6145;50.192;10.064;2022-10-31T13:33:53;17.50;95.50
12164;DHT22;6145;50.192;10.064;2022-10-31T13:36:26;17.60;95.40
12164;DHT22;6145;50.192;10.064;2022-10-31T13:38:59;17.70;95.20
12164;DHT22;6145;50.192;10.064;2022-10-31T13:41:33;17.60;94.90
12164;DHT22;6145;50.192;10.064;2022-10-31T13:44:11;18.50;95.90
12164;DHT22;6145;50.192;10.064;2022-10-31T13:46:40;17.60;95.80
12164;DHT22;6145;50.192;10.064;2022-10-31T13:49:25;17.70;95.30
12164;DHT22;6145;50.192;10.064;2022-10-31T13:51:53;17.60;94.90
12164;DHT22;6145;50.192;10.064;2022-10-31T13:54:32;17.60;94.70
12164;DHT22;6145;50.192;10.064;2022-10-31T13:57:01;17.60;94.80
12164;DHT22;6145;50.192;10.064;2022-10-31T13:59:29;17.70;94.70
12164;DHT22;6145;50.192;10.064;2022-10-31T14:01:59;17.60;94.70
12164;DHT22;6145;50.192;10.064;2022-10-31T14:04:32;17.70;94.80
12164;DHT22;6145;50.192;10.064;2022-10-31T14:07:07;17.70;94.90
12164;DHT22;6145;50.192;10.064;2022-10-31T14:09:37;17.70;95.30
12164;DHT22;6145;50.192;10.064;2022-10-31T14:12:08;17.70;95.30
12164;DHT22;6145;50.192;10.064;2022-10-31T14:14:45;17.70;94.90
12164;DHT22;6145;50.192;10.064;2022-10-31T14:17:20;17.70;95.10
12164;DHT22;6145;50.192;10.064;2022-10-31T14:19:59;17.70;94.70
12164;DHT22;6145;50.192;10.064;2022-10-31T14:22:29;17.70;94.70
12164;DHT22;6145;50.192;10.064;2022-10-31T14:24:56;17.60;94.50
12164;DHT22;6145;50.192;10.064;2022-10-31T14:27:44;17.70;94.50
12164;DHT22;6145;50.192;10.064;2022-10-31T14:30:19;17.60;94.10
12164;DHT22;6145;50.192;10.064;2022-10-31T14:32:52;17.60;94.60
12164;DHT22;6145;50.192;10.064;2022-10-31T14:35:20;17.60;94.60
12164;DHT22;6145;50.192;10.064;2022-10-31T14:38:15;17.60;94.60
12164;DHT22;6145;50.192;10.064;2022-10-31T14:40:58;17.60;94.60
12164;DHT22;6145;50.192;10.064;2022-10-31T14:43:42;17.60;94.50
12164;DHT22;6145;50.192;10.064;2022-10-31T14:46:17;17.60;94.30
12164;DHT22;6145;50.192;10.064;2022-10-31T14:49:04;17.50;94.00
12164;DHT22;6145;50.192;10.064;2022-10-31T14:51:35;17.60;94.20
12164;DHT22;6145;50.192;10.064;2022-10-31T14:54:05;17.40;94.10
12164;DHT22;6145;50.192;10.064;2022-10-31T14:56:34;17.40;94.20
12164;DHT22;6145;50.192;10.064;2022-10-31T14:59:07;17.40;94.30
12164;DHT22;6145;50.192;10.064;2022-10-31T15:01:36;17.80;94.30
12164;DHT22;6145;50.192;10.064;2022-10-31T15:04:09;17.30;93.80
12164;DHT22;6145;50.192;10.064;2022-10-31T15:06:41;17.30;93.70
12164;DHT22;6145;50.192;10.064;2022-10-31T15:09:21;17.30;93.40
12164;DHT22;6145;50.192;10.064;2022-10-31T15:11:48;17.20;93.50
12164;DHT22;6145;50.192;10.064;2022-10-31T15:14:24;17.10;93.40
12164;DHT22;6145;50.192;10.064;2022-10-31T15:16:51;17.20;93.60
12164;DHT22;6145;50.192;10.064;2022-10-31T15:19:21;17.20;93.60
12164;DHT22;6145;50.192;10.064;2022-10-31T15:21:50;17.10;93.90
12164;DHT22;6145;50.192;10.064;2022-10-31T15:24:18;17.00;93.80
12164;DHT22;6145;50.192;10.064;2022-10-31T15:26:48;17.00;93.60
12164;DHT22;6145;50.192;10.064;2022-10-31T15:29:17;17.10;93.60
12164;DHT22;6145;50.192;10.064;2022-10-31T15:31:51;16.90;93.60
12164;DHT22;6145;50.192;10.064;2022-10-31T15:34:22;16.90;93.60
12164;DHT22;6145;50.192;10.064;2022-10-31T15:36:51;17.00;93.80
12164;DHT22;6145;50.192;10.064;2022-10-31T15:39:18;17.20;93.80
12164;DHT22;6145;50.192;10.064;2022-10-31T15:41:49;17.00;93.60
12164;DHT22;6145;50.192;10.064;2022-10-31T15:44:21;16.80;93.80
12164;DHT22;6145;50.192;10.064;2022-10-31T15:46:58;17.10;94.10
12164;DHT22;6145;50.192;10.064;2022-10-31T15:49:33;16.70;94.00
12164;DHT22;6145;50.192;10.064;2022-10-31T15:52:07;16.70;94.00
12164;DHT22;6145;50.192;10.064;2022-10-31T15:54:45;16.70;94.10
12164;DHT22;6145;50.192;10.064;2022-10-31T15:57:12;16.70;94.10
12164;DHT22;6145;50.192;10.064;2022-10-31T15:59:41;16.60;94.00
12164;DHT22;6145;50.192;10.064;2022-10-31T16:02:13;16.60;94.10